createdAt,value
2019-05-30T00:00:17.242Z,29.6
2019-05-30T00:01:19.965Z,29.4
2019-05-30T00:02:22.380Z,29.6
2019-05-30T00:03:24.805Z,29.7
2019-05-30T00:04:27.243Z,29.5
2019-05-30T00:05:29.687Z,29.6
2019-05-30T00:06:32.115Z,29.5
2019-05-30T00:07:34.546Z,29.7
2019-05-30T00:08:36.977Z,29.7
2019-05-30T00:09:39.411Z,29.8
2019-05-30T00:10:41.820Z,29.6
2019-05-30T00:11:44.247Z,29.9
2019-05-30T00:12:46.129Z,29.8
2019-05-30T00:13:48.548Z,29.6
2019-05-30T00:14:51.024Z,29.6
2019-05-30T00:15:54.497Z,29.9
2019-05-30T00:16:59.247Z,29.8
2019-05-30T00:18:05.625Z,29.9
2019-05-30T00:19:08.050Z,29.9
2019-05-30T00:20:09.634Z,29.7
2019-05-30T00:21:12.077Z,29.8
2019-05-30T00:22:13.934Z,29.8
2019-05-30T00:23:16.367Z,29.9
2019-05-30T00:24:18.787Z,29.7
2019-05-30T00:25:21.827Z,29.6
2019-05-30T00:26:24.846Z,29.6
2019-05-30T00:27:27.269Z,29.6
2019-05-30T00:28:29.421Z,29.9
2019-05-30T00:29:31.844Z,29.7
2019-05-30T00:30:34.277Z,29.7
2019-05-30T00:31:36.695Z,29.8
2019-05-30T00:32:39.114Z,29.9
2019-05-30T00:33:41.553Z,29.7
2019-05-30T00:34:43.987Z,29.6
2019-05-30T00:35:46.415Z,29.8
2019-05-30T00:36:48.547Z,29.8
2019-05-30T00:37:50.721Z,30
2019-05-30T00:38:52.870Z,29.7
2019-05-30T00:39:57.747Z,29.8
2019-05-30T00:41:04.081Z,29.8
2019-05-30T00:42:07.665Z,29.6
2019-05-30T00:43:10.097Z,29.8
2019-05-30T00:44:12.525Z,29.6
2019-05-30T00:45:20.645Z,29.8
2019-05-30T00:46:19.944Z,29.8
2019-05-30T00:47:22.101Z,29.6
2019-05-30T00:48:24.248Z,29.6
2019-05-30T00:49:26.665Z,29.7
2019-05-30T00:50:29.096Z,29.7
2019-05-30T00:51:31.523Z,29.6
2019-05-30T00:52:33.947Z,29.7
2019-05-30T00:53:36.377Z,29.4
2019-05-30T00:54:38.805Z,29.6
2019-05-30T00:55:40.953Z,29.5
2019-05-30T00:56:43.114Z,29.4
2019-05-30T00:57:45.545Z,29.3
2019-05-30T00:58:48.000Z,29.3
2019-05-30T00:59:50.432Z,29.3
2019-05-30T01:00:52.586Z,29.5
2019-05-30T01:01:55.015Z,29.2
2019-05-30T01:03:01.712Z,29.3
2019-05-30T01:04:04.953Z,29.3
2019-05-30T01:05:08.385Z,29.4
2019-05-30T01:06:10.830Z,29.1
2019-05-30T01:07:13.269Z,29.1
2019-05-30T01:08:15.448Z,29.3
2019-05-30T01:09:17.873Z,29.2
2019-05-30T01:10:20.041Z,29.2
2019-05-30T01:11:22.491Z,29.3
2019-05-30T01:12:24.906Z,29.1
2019-05-30T01:13:27.330Z,29.1
2019-05-30T01:14:29.481Z,29.4
2019-05-30T01:15:31.643Z,29.3
2019-05-30T01:16:34.083Z,29.3
2019-05-30T01:17:36.510Z,29.1
2019-05-30T01:18:38.397Z,29.1
2019-05-30T01:19:40.823Z,29.1
2019-05-30T01:20:43.265Z,29.1
2019-05-30T01:21:45.590Z,29.1
2019-05-30T01:22:48.118Z,29.2
2019-05-30T01:23:50.022Z,29.1
2019-05-30T01:24:52.444Z,29
2019-05-30T01:25:54.886Z,29
2019-05-30T01:27:01.306Z,29.1
2019-05-30T01:28:06.117Z,29.2
2019-05-30T01:29:09.865Z,29
2019-05-30T01:30:12.296Z,29.1
2019-05-30T01:31:14.183Z,29
2019-05-30T01:32:16.793Z,29
2019-05-30T01:33:18.949Z,29.1
2019-05-30T01:34:20.842Z,29.1
2019-05-30T01:35:23.277Z,29.1
2019-05-30T01:36:25.139Z,29
2019-05-30T01:37:27.566Z,29
2019-05-30T01:38:30.184Z,29
2019-05-30T01:39:32.603Z,29
2019-05-30T01:40:35.033Z,29
2019-05-30T01:41:37.523Z,29.1
2019-05-30T01:42:39.695Z,29.1
2019-05-30T01:43:42.105Z,29
2019-05-30T01:44:44.273Z,29
2019-05-30T01:45:46.706Z,29.1
2019-05-30T01:46:48.890Z,29.1
2019-05-30T01:47:51.036Z,29.2
2019-05-30T01:48:53.474Z,29
2019-05-30T01:49:55.903Z,29.1
2019-05-30T01:51:00.955Z,29
2019-05-30T01:52:06.665Z,29
2019-05-30T01:53:10.308Z,29
2019-05-30T01:54:12.744Z,28.9
2019-05-30T01:55:15.172Z,29.2
2019-05-30T01:56:17.605Z,29
2019-05-30T01:57:20.037Z,29
2019-05-30T01:58:22.471Z,28.9
2019-05-30T01:59:24.905Z,29
2019-05-30T02:00:27.125Z,29
2019-05-30T02:01:29.550Z,29.2
2019-05-30T02:02:31.986Z,29
2019-05-30T02:03:34.131Z,29.1
2019-05-30T02:04:36.012Z,29.1
2019-05-30T02:05:37.875Z,29
2019-05-30T02:06:39.755Z,28.9
2019-05-30T02:07:42.185Z,29.3
2019-05-30T02:08:44.622Z,29.1
2019-05-30T02:09:47.037Z,29
2019-05-30T02:10:49.217Z,28.8
2019-05-30T02:11:51.658Z,28.9
2019-05-30T02:12:54.083Z,29.2
2019-05-30T02:13:56.517Z,29.1
2019-05-30T02:15:01.421Z,29
2019-05-30T02:16:06.128Z,28.9
2019-05-30T02:17:11.054Z,28.8
2019-05-30T02:18:13.479Z,29
2019-05-30T02:19:15.651Z,28.7
2019-05-30T02:20:17.524Z,28.7
2019-05-30T02:21:19.677Z,29
2019-05-30T02:22:22.122Z,29.2
2019-05-30T02:23:24.538Z,28.8
2019-05-30T02:24:26.968Z,28.8
2019-05-30T02:25:29.099Z,28.8
2019-05-30T02:26:31.522Z,28.9
2019-05-30T02:27:33.677Z,28.9
2019-05-30T02:28:35.837Z,29.1
2019-05-30T02:29:38.317Z,28.9
2019-05-30T02:30:40.204Z,28.8
2019-05-30T02:31:42.119Z,29
2019-05-30T02:32:44.369Z,28.8
2019-05-30T02:33:46.798Z,29.1
2019-05-30T02:34:49.226Z,29.1
2019-05-30T02:35:51.118Z,28.9
2019-05-30T02:36:53.526Z,28.7
2019-05-30T02:37:55.968Z,28.8
2019-05-30T02:38:58.388Z,28.9
2019-05-30T02:40:05.772Z,28.8
2019-05-30T02:41:09.921Z,28.8
2019-05-30T02:42:14.286Z,28.8
2019-05-30T02:43:16.506Z,29.2
2019-05-30T02:44:18.929Z,29
2019-05-30T02:45:21.081Z,28.7
2019-05-30T02:46:23.223Z,29
2019-05-30T02:47:25.386Z,28.9
2019-05-30T02:48:27.817Z,28.7
2019-05-30T02:49:30.248Z,28.8
2019-05-30T02:50:32.677Z,29
2019-05-30T02:51:35.097Z,29
2019-05-30T02:52:37.522Z,28.9
2019-05-30T02:53:39.687Z,28.9
2019-05-30T02:54:41.848Z,28.8
2019-05-30T02:55:44.298Z,28.9
2019-05-30T02:56:46.472Z,29
2019-05-30T02:57:48.885Z,29.1
2019-05-30T02:58:51.045Z,28.7
2019-05-30T02:59:53.479Z,28.9
2019-05-30T03:00:55.730Z,29
2019-05-30T03:02:01.458Z,29.1
2019-05-30T03:03:03.945Z,28.9
2019-05-30T03:04:10.850Z,29.1
2019-05-30T03:05:15.306Z,29
2019-05-30T03:06:17.344Z,28.6
2019-05-30T03:07:19.783Z,28.8
2019-05-30T03:08:22.211Z,29
2019-05-30T03:09:24.366Z,28.6
2019-05-30T03:10:26.532Z,28.8
2019-05-30T03:11:28.957Z,29.1
2019-05-30T03:12:31.392Z,28.7
2019-05-30T03:13:33.570Z,28.9
2019-05-30T03:14:35.733Z,28.8
2019-05-30T03:15:38.169Z,28.8
2019-05-30T03:16:40.342Z,28.7
2019-05-30T03:17:42.785Z,28.8
2019-05-30T03:18:45.209Z,29.2
2019-05-30T03:19:47.373Z,28.7
2019-05-30T03:20:49.962Z,29
2019-05-30T03:21:52.709Z,29.1
2019-05-30T03:22:55.327Z,29.1
2019-05-30T03:23:57.760Z,28.6
2019-05-30T03:25:00.182Z,28.8
2019-05-30T03:26:07.608Z,28.8
2019-05-30T03:27:12.238Z,28.9
2019-05-30T03:28:15.619Z,29
2019-05-30T03:29:18.049Z,28.9
2019-05-30T03:30:27.144Z,28.7
2019-05-30T03:31:28.975Z,28.8
2019-05-30T03:33:01.536Z,28.8
2019-05-30T03:33:39.921Z,29
2019-05-30T03:34:40.435Z,28.9
2019-05-30T03:35:44.026Z,29
2019-05-30T03:36:47.149Z,28.8
2019-05-30T03:37:49.629Z,28.7
2019-05-30T03:38:52.059Z,28.8
2019-05-30T03:39:54.484Z,28.6
2019-05-30T03:40:56.924Z,28.8
2019-05-30T03:41:59.362Z,28.8
2019-05-30T03:43:03.842Z,28.8
2019-05-30T03:44:15.466Z,29
2019-05-30T03:45:17.883Z,28.8
2019-05-30T03:46:20.335Z,28.9
2019-05-30T03:47:22.294Z,28.7
2019-05-30T03:48:24.742Z,28.9
2019-05-30T03:49:27.176Z,28.6
2019-05-30T03:50:29.602Z,28.9
2019-05-30T03:51:31.504Z,29.1
2019-05-30T03:52:33.938Z,29
2019-05-30T03:53:36.372Z,28.8
2019-05-30T03:54:38.503Z,28.9
2019-05-30T03:55:40.949Z,28.8
2019-05-30T03:56:43.385Z,28.8
2019-05-30T03:57:45.525Z,28.9
2019-05-30T03:58:47.962Z,29.1
2019-05-30T03:59:50.416Z,28.9
2019-05-30T04:00:52.838Z,28.9
2019-05-30T04:01:55.282Z,28.9
2019-05-30T04:02:59.147Z,29.1
2019-05-30T04:04:01.538Z,28.8
2019-05-30T04:05:03.967Z,28.8
2019-05-30T04:06:13.668Z,28.9
2019-05-30T04:07:20.058Z,28.9
2019-05-30T04:08:22.494Z,28.9
2019-05-30T04:09:25.415Z,28.7
2019-05-30T04:10:27.875Z,28.7
2019-05-30T04:11:30.036Z,28.7
2019-05-30T04:12:32.489Z,28.9
2019-05-30T04:13:34.915Z,29.1
2019-05-30T04:14:37.078Z,28.9
2019-05-30T04:15:39.531Z,29
2019-05-30T04:16:41.456Z,28.9
2019-05-30T04:17:43.896Z,28.7
2019-05-30T04:18:46.334Z,28.9
2019-05-30T04:19:48.463Z,29
2019-05-30T04:20:50.893Z,28.7
2019-05-30T04:21:52.514Z,29
2019-05-30T04:22:54.176Z,28.9
2019-05-30T04:23:56.355Z,28.8
2019-05-30T04:24:58.498Z,28.7
2019-05-30T04:26:01.240Z,28.9
2019-05-30T04:27:03.152Z,28.8
2019-05-30T04:28:05.310Z,28.9
2019-05-30T04:29:16.578Z,29
2019-05-30T04:30:20.854Z,28.8
2019-05-30T04:31:23.281Z,29.2
2019-05-30T04:32:25.437Z,28.7
2019-05-30T04:33:32.881Z,28.7
2019-05-30T04:34:32.583Z,28.7
2019-05-30T04:35:35.018Z,28.9
2019-05-30T04:36:37.800Z,29
2019-05-30T04:37:40.219Z,29
2019-05-30T04:38:43.241Z,28.7
2019-05-30T04:39:45.666Z,28.7
2019-05-30T04:40:47.564Z,28.9
2019-05-30T04:41:49.985Z,28.6
2019-05-30T04:42:52.532Z,28.6
2019-05-30T04:43:54.952Z,28.8
2019-05-30T04:44:57.378Z,28.8
2019-05-30T04:45:59.528Z,28.9
2019-05-30T04:47:01.448Z,29
2019-05-30T04:48:03.677Z,28.7
2019-05-30T04:49:06.094Z,28.9
2019-05-30T04:50:12.090Z,28.6
2019-05-30T04:51:21.819Z,29.2
2019-05-30T04:52:24.793Z,29
2019-05-30T04:53:27.526Z,29.1
2019-05-30T04:54:29.698Z,28.8
2019-05-30T04:55:31.861Z,28.7
2019-05-30T04:56:34.307Z,29
2019-05-30T04:57:36.465Z,28.5
2019-05-30T04:58:42.100Z,29
2019-05-30T04:59:43.884Z,29.1
2019-05-30T05:00:46.042Z,28.7
2019-05-30T05:01:48.463Z,28.8
2019-05-30T05:02:50.360Z,28.6
2019-05-30T05:03:52.510Z,28.7
2019-05-30T05:04:54.674Z,28.7
2019-05-30T05:05:57.116Z,28.8
2019-05-30T05:06:59.541Z,28.9
2019-05-30T05:08:01.695Z,28.8
2019-05-30T05:09:03.849Z,28.6
2019-05-30T05:10:06.277Z,28.5
2019-05-30T05:11:12.345Z,28.7
2019-05-30T05:12:13.977Z,29.2
2019-05-30T05:13:20.330Z,29
2019-05-30T05:14:24.457Z,28.8
2019-05-30T05:15:26.898Z,28.9
2019-05-30T05:16:35.221Z,28.7
2019-05-30T05:17:34.313Z,28.6
2019-05-30T05:18:36.753Z,29
2019-05-30T05:19:39.196Z,28.9
2019-05-30T05:20:41.640Z,28.8
2019-05-30T05:21:44.063Z,28.7
2019-05-30T05:22:45.955Z,28.9
2019-05-30T05:23:48.383Z,28.7
2019-05-30T05:24:50.539Z,28.9
2019-05-30T05:26:00.650Z,28.4
2019-05-30T05:26:57.948Z,28.9
2019-05-30T05:28:00.371Z,28.9
2019-05-30T05:29:02.853Z,28.7
2019-05-30T05:30:05.004Z,28.7
2019-05-30T05:31:07.181Z,28.9
2019-05-30T05:32:09.376Z,29
2019-05-30T05:33:11.825Z,29
2019-05-30T05:34:16.853Z,28.6
2019-05-30T05:35:21.143Z,28.8
2019-05-30T05:36:25.980Z,29
2019-05-30T05:37:28.426Z,28.8
2019-05-30T05:38:30.865Z,29
2019-05-30T05:39:33.303Z,28.6
2019-05-30T05:40:35.466Z,28.8
2019-05-30T05:41:37.620Z,29
2019-05-30T05:42:39.727Z,28.8
2019-05-30T05:43:43.741Z,28.6
2019-05-30T05:44:46.185Z,28.7
2019-05-30T05:45:48.505Z,28.8
2019-05-30T05:46:50.950Z,28.7
2019-05-30T05:47:53.387Z,28.6
2019-05-30T05:48:55.868Z,28.6
2019-05-30T05:49:58.294Z,28.7
2019-05-30T05:51:00.737Z,28.9
2019-05-30T05:52:02.903Z,28.6
2019-05-30T05:53:05.325Z,28.9
2019-05-30T05:54:07.755Z,28.8
2019-05-30T05:55:10.184Z,29
2019-05-30T05:56:12.609Z,28.6
2019-05-30T05:57:15.033Z,28.7
2019-05-30T05:58:20.862Z,28.7
2019-05-30T05:59:27.372Z,29
2019-05-30T06:00:30.753Z,29
2019-05-30T06:01:33.297Z,29
2019-05-30T06:02:35.802Z,28.5
2019-05-30T06:03:38.240Z,28.9
2019-05-30T06:04:39.848Z,28.7
2019-05-30T06:05:52.440Z,28.6
2019-05-30T06:06:46.995Z,28.7
2019-05-30T06:07:49.434Z,28.6
2019-05-30T06:08:51.588Z,28.9
2019-05-30T06:09:54.013Z,28.8
2019-05-30T06:10:56.452Z,28.8
2019-05-30T06:11:58.622Z,28.6
2019-05-30T06:13:01.044Z,28.7
2019-05-30T06:14:03.467Z,28.9
2019-05-30T06:15:05.940Z,29.1
2019-05-30T06:16:08.438Z,29
2019-05-30T06:17:10.870Z,28.7
2019-05-30T06:18:13.348Z,29
2019-05-30T06:19:15.476Z,29.2
2019-05-30T06:20:21.736Z,28.6
2019-05-30T06:21:27.467Z,28.6
2019-05-30T06:22:29.407Z,28.5
2019-05-30T06:23:31.847Z,28.9
2019-05-30T06:24:33.732Z,29.1
2019-05-30T06:25:35.905Z,28.8
2019-05-30T06:26:38.325Z,28.7
2019-05-30T06:27:40.471Z,29
2019-05-30T06:28:42.903Z,28.7
2019-05-30T06:29:44.798Z,28.6
2019-05-30T06:30:47.228Z,29
2019-05-30T06:31:49.578Z,28.6
2019-05-30T06:32:52.567Z,28.9
2019-05-30T06:33:54.729Z,28.3
2019-05-30T06:34:56.585Z,28.7
2019-05-30T06:35:59.153Z,29
2019-05-30T06:37:01.674Z,28.7
2019-05-30T06:38:03.706Z,28.8
2019-05-30T06:39:05.847Z,28.7
2019-05-30T06:40:08.387Z,28.9
2019-05-30T06:41:10.557Z,28.7
2019-05-30T06:42:12.437Z,29.2
2019-05-30T06:43:14.294Z,28.7
2019-05-30T06:44:17.232Z,28.5
2019-05-30T06:45:21.854Z,28.9
2019-05-30T06:46:26.174Z,28.7
2019-05-30T06:47:30.667Z,28.4
2019-05-30T06:48:32.552Z,28.5
2019-05-30T06:49:34.985Z,28.7
2019-05-30T06:50:37.777Z,28.5
2019-05-30T06:51:40.344Z,28.7
2019-05-30T06:52:42.786Z,28.5
2019-05-30T06:53:44.936Z,28.5
2019-05-30T06:54:47.104Z,28.5
2019-05-30T06:55:48.998Z,28.9
2019-05-30T06:56:51.446Z,28.6
2019-05-30T06:57:53.864Z,28.4
2019-05-30T06:58:55.736Z,28.4
2019-05-30T06:59:58.152Z,28.8
2019-05-30T07:01:00.303Z,29.1
2019-05-30T07:02:02.487Z,28.7
2019-05-30T07:03:04.667Z,28.5
2019-05-30T07:04:08.086Z,28.7
2019-05-30T07:05:12.100Z,28.5
2019-05-30T07:06:18.709Z,28.6
2019-05-30T07:07:26.963Z,28.8
2019-05-30T07:08:33.896Z,28.8
2019-05-30T07:09:36.348Z,28.9
2019-05-30T07:10:38.790Z,28.4
2019-05-30T07:11:40.655Z,28.5
2019-05-30T07:12:42.814Z,28.7
2019-05-30T07:13:45.257Z,28.9
2019-05-30T07:14:47.725Z,28.9
2019-05-30T07:15:49.629Z,28.6
2019-05-30T07:16:52.071Z,28.8
2019-05-30T07:17:54.506Z,28.7
2019-05-30T07:18:56.944Z,29
2019-05-30T07:19:59.107Z,28.8
2019-05-30T07:21:01.270Z,28.9
2019-05-30T07:22:03.707Z,28.8
2019-05-30T07:23:06.137Z,28.5
2019-05-30T07:24:08.636Z,28.7
2019-05-30T07:25:11.078Z,28.5
2019-05-30T07:26:13.495Z,28.6
2019-05-30T07:27:15.653Z,28.5
2019-05-30T07:28:17.800Z,28.9
2019-05-30T07:29:19.703Z,28.6
2019-05-30T07:30:22.066Z,28.9
2019-05-30T07:31:27.967Z,28.7
2019-05-30T07:32:34.121Z,28.6
2019-05-30T07:33:36.549Z,28.5
2019-05-30T07:34:38.798Z,28.6
2019-05-30T07:35:41.265Z,28.4
2019-05-30T07:36:43.433Z,28.6
2019-05-30T07:37:46.752Z,28.6
2019-05-30T07:38:49.281Z,28.8
2019-05-30T07:39:51.136Z,28.8
2019-05-30T07:40:53.674Z,28.5
2019-05-30T07:42:05.524Z,28.7
2019-05-30T07:43:00.807Z,28.6
2019-05-30T07:44:03.968Z,28.9
2019-05-30T07:45:06.116Z,28.9
2019-05-30T07:46:08.286Z,28.4
2019-05-30T07:47:10.444Z,28.9
2019-05-30T07:48:12.396Z,28.8
2019-05-30T07:49:14.838Z,28.5
2019-05-30T07:50:17.074Z,28.7
2019-05-30T07:51:18.954Z,28.6
2019-05-30T07:52:26.450Z,28.9
2019-05-30T07:53:31.101Z,28.2
2019-05-30T07:54:35.995Z,28.8
2019-05-30T07:55:39.748Z,28.9
2019-05-30T07:56:41.909Z,28.5
2019-05-30T07:57:44.068Z,29
2019-05-30T07:58:46.504Z,28.9
2019-05-30T07:59:48.933Z,28.5
2019-05-30T08:00:51.362Z,28.8
2019-05-30T08:01:53.997Z,28.8
2019-05-30T08:02:56.153Z,28.8
2019-05-30T08:03:58.636Z,28.5
2019-05-30T08:05:01.070Z,28.7
2019-05-30T08:06:03.956Z,28.7
2019-05-30T08:07:07.339Z,28.7
2019-05-30T08:08:09.870Z,28.5
2019-05-30T08:09:12.310Z,28.9
2019-05-30T08:10:15.083Z,28.8
2019-05-30T08:11:17.895Z,28.4
2019-05-30T08:12:20.681Z,28.8
2019-05-30T08:13:22.868Z,28.6
2019-05-30T08:14:25.304Z,28.6
2019-05-30T08:15:29.738Z,28.7
2019-05-30T08:16:35.454Z,28.8
2019-05-30T08:17:39.940Z,29
2019-05-30T08:18:46.106Z,28.6
2019-05-30T08:19:48.445Z,28.8
2019-05-30T08:20:51.971Z,28.6
2019-05-30T08:21:54.982Z,28.4
2019-05-30T08:22:56.606Z,28.9
2019-05-30T08:23:59.048Z,28.4
2019-05-30T08:25:01.493Z,28.3
2019-05-30T08:26:03.649Z,28.8
2019-05-30T08:27:06.082Z,28.4
2019-05-30T08:28:08.516Z,28.9
2019-05-30T08:29:10.657Z,28.5
2019-05-30T08:30:12.818Z,28.6
2019-05-30T08:31:15.276Z,28.9
2019-05-30T08:32:17.714Z,28.7
2019-05-30T08:33:21.717Z,28.7
2019-05-30T08:34:24.666Z,28.4
2019-05-30T08:35:38.886Z,28.4
2019-05-30T08:36:32.793Z,28.5
2019-05-30T08:37:37.594Z,28.5
2019-05-30T08:38:41.346Z,28.5
2019-05-30T08:39:43.792Z,28.5
2019-05-30T08:40:46.216Z,28.4
2019-05-30T08:41:48.674Z,28.5
2019-05-30T08:42:50.592Z,28.4
2019-05-30T08:43:53.016Z,28.3
2019-05-30T08:44:55.452Z,28.6
2019-05-30T08:45:57.895Z,28.5
2019-05-30T08:47:00.118Z,28.5
2019-05-30T08:48:03.196Z,28.9
2019-05-30T08:49:05.082Z,28.5
2019-05-30T08:50:07.507Z,28.5
2019-05-30T08:51:10.186Z,28.8
2019-05-30T08:52:12.627Z,28.7
2019-05-30T08:53:14.782Z,28.4
2019-05-30T08:54:17.222Z,28.6
2019-05-30T08:55:19.653Z,28.7
2019-05-30T08:56:21.820Z,28.8
2019-05-30T08:57:23.702Z,28.5
2019-05-30T08:58:26.152Z,28.7
2019-05-30T08:59:28.285Z,28.9
2019-05-30T09:00:31.491Z,28.7
2019-05-30T09:01:35.644Z,28.5
2019-05-30T09:02:43.324Z,28.9
2019-05-30T09:03:48.791Z,29
2019-05-30T09:04:50.936Z,28.6
2019-05-30T09:06:02.477Z,28.5
2019-05-30T09:06:58.337Z,28.6
2019-05-30T09:08:00.212Z,28.7
2019-05-30T09:09:02.755Z,28.5
2019-05-30T09:10:05.874Z,28.7
2019-05-30T09:11:08.049Z,28.5
2019-05-30T09:12:10.510Z,28.7
2019-05-30T09:13:12.678Z,28.7
2019-05-30T09:14:14.807Z,28.9
2019-05-30T09:15:21.102Z,28.6
2019-05-30T09:16:22.608Z,28.5
2019-05-30T09:17:25.034Z,28.8
2019-05-30T09:18:26.938Z,29
2019-05-30T09:19:29.394Z,28.6
2019-05-30T09:20:32.068Z,28.9
2019-05-30T09:21:34.496Z,28.8
2019-05-30T09:22:41.773Z,28.6
2019-05-30T09:23:48.211Z,28.9
2019-05-30T09:24:50.486Z,28.7
2019-05-30T09:25:52.631Z,28.8
2019-05-30T09:26:55.062Z,28.7
2019-05-30T09:27:58.058Z,28.5
2019-05-30T09:29:03.563Z,28.8
2019-05-30T09:30:05.506Z,28.6
2019-05-30T09:31:07.936Z,28.8
2019-05-30T09:32:10.364Z,28.8
2019-05-30T09:33:12.818Z,28.9
2019-05-30T09:34:15.089Z,28.8
2019-05-30T09:35:17.732Z,28.6
2019-05-30T09:36:19.879Z,28.5
2019-05-30T09:37:22.217Z,28.8
2019-05-30T09:38:24.638Z,28.7
2019-05-30T09:39:29.660Z,28.6
2019-05-30T09:40:32.455Z,28.6
2019-05-30T09:41:34.067Z,28.8
2019-05-30T09:42:37.665Z,28.7
2019-05-30T09:43:44.610Z,28.8
2019-05-30T09:44:52.155Z,28.5
2019-05-30T09:45:54.364Z,28.4
2019-05-30T09:46:56.803Z,28.5
2019-05-30T09:47:59.020Z,28.4
2019-05-30T09:49:01.460Z,28.9
2019-05-30T09:50:04.023Z,28.7
2019-05-30T09:51:06.538Z,28.5
2019-05-30T09:52:09.517Z,28.6
2019-05-30T09:53:11.944Z,29
2019-05-30T09:54:14.411Z,29.1
2019-05-30T09:55:16.574Z,29
2019-05-30T09:56:18.726Z,28.3
2019-05-30T09:57:21.156Z,28.9
2019-05-30T09:58:23.585Z,28.7
2019-05-30T09:59:26.017Z,28.5
2019-05-30T10:00:27.895Z,28.5
2019-05-30T10:01:30.325Z,28.9
2019-05-30T10:02:32.227Z,28.4
2019-05-30T10:03:34.723Z,28.8
2019-05-30T10:04:36.952Z,28.6
2019-05-30T10:05:38.874Z,28.6
2019-05-30T10:06:42.055Z,28.5
2019-05-30T10:07:47.882Z,28.7
2019-05-30T10:08:53.477Z,28.6
2019-05-30T10:09:55.907Z,29
2019-05-30T10:10:58.635Z,28.7
2019-05-30T10:12:01.070Z,28.5
2019-05-30T10:13:03.224Z,28.6
2019-05-30T10:14:05.387Z,28.8
2019-05-30T10:15:07.816Z,28.8
2019-05-30T10:16:10.253Z,28.6
2019-05-30T10:17:12.689Z,28.9
2019-05-30T10:18:14.853Z,29
2019-05-30T10:19:17.330Z,28.7
2019-05-30T10:20:19.780Z,29
2019-05-30T10:21:21.958Z,28.8
2019-05-30T10:22:24.387Z,28.6
2019-05-30T10:23:26.548Z,28.9
2019-05-30T10:24:29.626Z,28.7
2019-05-30T10:25:32.048Z,28.6
2019-05-30T10:26:34.372Z,28.6
2019-05-30T10:27:36.284Z,28.6
2019-05-30T10:28:38.456Z,28.9
2019-05-30T10:29:40.623Z,28.5
2019-05-30T10:30:43.098Z,28.5
2019-05-30T10:31:49.039Z,29
2019-05-30T10:32:53.774Z,28.6
2019-05-30T10:33:57.826Z,29.1
2019-05-30T10:35:00.266Z,28.5
2019-05-30T10:36:02.434Z,28.8
2019-05-30T10:37:04.557Z,28.7
2019-05-30T10:38:06.722Z,28.2
2019-05-30T10:39:08.886Z,28.5
2019-05-30T10:40:11.306Z,28.9
2019-05-30T10:41:13.483Z,28.6
2019-05-30T10:42:15.370Z,28.3
2019-05-30T10:43:17.545Z,28.6
2019-05-30T10:44:19.702Z,28.4
2019-05-30T10:45:21.853Z,28.3
2019-05-30T10:46:24.277Z,28.5
2019-05-30T10:47:26.720Z,28.5
2019-05-30T10:48:28.868Z,28.6
2019-05-30T10:49:34.493Z,28.8
2019-05-30T10:50:36.008Z,28.5
2019-05-30T10:51:38.454Z,28.7
2019-05-30T10:52:40.958Z,28.7
2019-05-30T10:53:43.392Z,28.4
2019-05-30T10:54:49.372Z,28.6
2019-05-30T10:55:54.813Z,28.4
2019-05-30T10:56:57.896Z,28.7
2019-05-30T10:58:00.056Z,28.6
2019-05-30T10:59:02.655Z,29
2019-05-30T11:00:05.118Z,28.9
2019-05-30T11:01:10.679Z,28.4
2019-05-30T11:02:12.926Z,28.4
2019-05-30T11:03:15.364Z,28.6
2019-05-30T11:04:17.796Z,28.6
2019-05-30T11:05:19.952Z,28.8
2019-05-30T11:06:21.823Z,28.6
2019-05-30T11:07:24.270Z,28.7
2019-05-30T11:08:26.158Z,28.5
2019-05-30T11:09:28.046Z,28.7
2019-05-30T11:10:30.193Z,28.9
2019-05-30T11:11:32.073Z,28.8
2019-05-30T11:12:34.225Z,28.7
2019-05-30T11:13:37.286Z,28.3
2019-05-30T11:14:39.714Z,28.6
2019-05-30T11:15:42.125Z,28.5
2019-05-30T11:16:44.513Z,28.8
2019-05-30T11:17:52.506Z,28.4
2019-05-30T11:18:56.164Z,28.5
2019-05-30T11:19:59.687Z,28.8
2019-05-30T11:21:01.855Z,28.6
2019-05-30T11:22:03.867Z,28.6
2019-05-30T11:23:06.026Z,28.5
2019-05-30T11:24:08.480Z,28.4
2019-05-30T11:25:10.914Z,28.7
2019-05-30T11:26:13.283Z,28.8
2019-05-30T11:27:15.419Z,28.9
2019-05-30T11:28:17.574Z,28.4
2019-05-30T11:29:20.009Z,28.4
2019-05-30T11:30:22.442Z,28.9
2019-05-30T11:31:24.708Z,28.3
2019-05-30T11:32:26.571Z,28.5
2019-05-30T11:33:28.178Z,28.3
2019-05-30T11:34:30.601Z,28.8
2019-05-30T11:35:33.034Z,28.5
2019-05-30T11:36:34.910Z,28.8
2019-05-30T11:37:37.064Z,28.3
2019-05-30T11:38:38.941Z,28.4
2019-05-30T11:39:41.374Z,28.6
2019-05-30T11:40:42.966Z,28.5
2019-05-30T11:41:45.143Z,28.5
2019-05-30T11:42:47.308Z,28.5
2019-05-30T11:43:53.419Z,28.9
2019-05-30T11:44:59.846Z,28.9
2019-05-30T11:46:02.420Z,28.3
2019-05-30T11:47:04.588Z,28.8
2019-05-30T11:48:07.018Z,28.7
2019-05-30T11:49:09.186Z,28.6
2019-05-30T11:50:12.998Z,28.7
2019-05-30T11:51:15.318Z,28.4
2019-05-30T11:52:17.473Z,28.3
2019-05-30T11:53:19.637Z,28.8
2019-05-30T11:54:22.055Z,28.5
2019-05-30T11:55:23.679Z,28.3
2019-05-30T11:56:26.560Z,28.3
2019-05-30T11:57:29.481Z,28.4
2019-05-30T11:58:32.024Z,28.7
2019-05-30T11:59:35.250Z,28.7
2019-05-30T12:00:37.463Z,28.6
2019-05-30T12:01:39.906Z,28.6
2019-05-30T12:02:42.066Z,28.8
2019-05-30T12:03:44.676Z,28.7
2019-05-30T12:04:47.718Z,28.7
2019-05-30T12:05:52.478Z,28.8
2019-05-30T12:06:57.328Z,28.6
2019-05-30T12:08:01.897Z,28.2
2019-05-30T12:09:03.776Z,28.7
2019-05-30T12:10:05.934Z,28.5
2019-05-30T12:11:08.099Z,28.8
2019-05-30T12:12:10.247Z,28.5
2019-05-30T12:13:12.421Z,28.6
2019-05-30T12:14:14.829Z,28.8
2019-05-30T12:15:17.456Z,28.4
2019-05-30T12:16:19.626Z,28.7
2019-05-30T12:17:21.234Z,28.7
2019-05-30T12:18:23.668Z,28.6
2019-05-30T12:19:26.127Z,28.5
2019-05-30T12:20:28.556Z,29
2019-05-30T12:21:30.711Z,28.4
2019-05-30T12:22:33.189Z,28.7
2019-05-30T12:23:35.052Z,28.5
2019-05-30T12:24:37.538Z,28.7
2019-05-30T12:25:39.974Z,28.8
2019-05-30T12:26:42.413Z,28.6
2019-05-30T12:27:44.826Z,28.7
2019-05-30T12:28:47.029Z,28.6
2019-05-30T12:29:49.462Z,28.5
2019-05-30T12:30:58.064Z,29
2019-05-30T12:31:59.986Z,28.5
2019-05-30T12:33:03.016Z,28.7
2019-05-30T12:34:05.651Z,28.8
2019-05-30T12:35:08.082Z,28.5
2019-05-30T12:36:10.509Z,28.6
2019-05-30T12:37:12.956Z,28.4
2019-05-30T12:38:15.092Z,28.6
2019-05-30T12:39:17.214Z,28.4
2019-05-30T12:40:19.655Z,28.5
2019-05-30T12:41:21.793Z,28.7
2019-05-30T12:42:23.936Z,28.6
2019-05-30T12:43:26.385Z,28.9
2019-05-30T12:44:28.822Z,28.7
2019-05-30T12:45:31.851Z,28.6
2019-05-30T12:46:34.287Z,28.6
2019-05-30T12:47:36.716Z,28.8
2019-05-30T12:48:38.616Z,28.5
2019-05-30T12:49:40.493Z,28.5
2019-05-30T12:50:42.925Z,28.8
2019-05-30T12:51:45.353Z,28.6
2019-05-30T12:52:47.649Z,28.7
2019-05-30T12:53:49.805Z,28.5
2019-05-30T12:54:52.070Z,28.8
2019-05-30T12:55:56.946Z,28.8
2019-05-30T12:57:02.793Z,29
2019-05-30T12:58:05.037Z,28.6
2019-05-30T12:59:07.994Z,28.8
2019-05-30T13:00:17.175Z,28.8
2019-05-30T13:01:15.194Z,28.7
2019-05-30T13:02:18.104Z,28.5
2019-05-30T13:03:20.552Z,28.6
2019-05-30T13:04:22.726Z,28.9
2019-05-30T13:05:25.492Z,29.1
2019-05-30T13:06:27.922Z,28.5
2019-05-30T13:07:30.363Z,28.6
2019-05-30T13:08:32.506Z,28.8
2019-05-30T13:09:34.947Z,28.7
2019-05-30T13:10:37.123Z,28.6
2019-05-30T13:11:39.286Z,28.9
2019-05-30T13:12:41.447Z,29
2019-05-30T13:13:43.878Z,28.5
2019-05-30T13:14:46.045Z,28.8
2019-05-30T13:15:48.478Z,28.5
2019-05-30T13:16:50.653Z,28.5
2019-05-30T13:17:53.091Z,28.6
2019-05-30T13:19:00.070Z,28.4
2019-05-30T13:20:07.713Z,28.8
2019-05-30T13:21:09.983Z,28.9
2019-05-30T13:22:12.413Z,29
2019-05-30T13:23:14.841Z,28.4
2019-05-30T13:24:16.994Z,28.8
2019-05-30T13:25:18.629Z,28.7
2019-05-30T13:26:21.053Z,28.8
2019-05-30T13:27:23.776Z,28.9
2019-05-30T13:28:26.205Z,28.6
2019-05-30T13:29:28.362Z,28.7
2019-05-30T13:30:30.978Z,28.7
2019-05-30T13:31:33.405Z,28.9
2019-05-30T13:32:35.830Z,28.6
2019-05-30T13:33:38.639Z,28.8
2019-05-30T13:34:40.882Z,28.6
2019-05-30T13:35:42.779Z,28.7
2019-05-30T13:36:44.940Z,28.5
2019-05-30T13:37:47.099Z,28.8
2019-05-30T13:38:48.972Z,28.6
2019-05-30T13:39:51.135Z,28.8
2019-05-30T13:40:53.601Z,28.7
2019-05-30T13:41:55.187Z,28.8
2019-05-30T13:42:59.625Z,28.9
2019-05-30T13:44:06.778Z,28.7
2019-05-30T13:45:09.524Z,28.6
2019-05-30T13:46:11.428Z,28.5
2019-05-30T13:47:13.892Z,28.4
2019-05-30T13:48:16.049Z,28.8
2019-05-30T13:49:18.205Z,28.9
2019-05-30T13:50:20.635Z,28.6
2019-05-30T13:51:22.807Z,28.7
2019-05-30T13:52:24.697Z,28.5
2019-05-30T13:53:27.128Z,28.8
2019-05-30T13:54:29.005Z,28.7
2019-05-30T13:55:31.608Z,28.7
2019-05-30T13:56:34.655Z,28.6
2019-05-30T13:57:37.079Z,28.5
2019-05-30T13:58:39.236Z,28.5
2019-05-30T13:59:41.384Z,29
2019-05-30T14:00:43.549Z,28.9
2019-05-30T14:01:45.703Z,28.8